createdAt,value
2023-07-12T00:04:57.398Z,0.00
2023-07-12T00:09:58.422Z,0.00
2023-07-12T00:14:59.528Z,0.00
2023-07-12T00:20:01.654Z,0.00
2023-07-12T00:25:00.698Z,0.00
2023-07-12T00:30:01.719Z,0.00
2023-07-12T00:35:02.782Z,0.00
2023-07-12T00:40:03.932Z,0.00
2023-07-12T00:45:05.005Z,0.00
2023-07-12T00:50:07.034Z,0.00
2023-07-12T00:55:08.073Z,0.00
2023-07-12T01:00:07.172Z,0.00
2023-07-12T01:05:09.237Z,0.00
2023-07-12T01:10:08.319Z,0.00
2023-07-12T01:15:09.363Z,0.00
2023-07-12T01:20:10.395Z,0.00
2023-07-12T01:25:11.468Z,0.00
2023-07-12T01:30:13.491Z,0.00
2023-07-12T01:35:13.581Z,0.00
2023-07-12T01:40:14.737Z,0.00
2023-07-12T01:45:14.799Z,0.00
2023-07-12T01:50:13.824Z,0.00
2023-07-12T01:55:14.892Z,0.00
2023-07-12T02:00:14.958Z,0.00
2023-07-12T02:05:17.007Z,0.00
2023-07-12T02:10:16.034Z,0.00
2023-07-12T02:15:17.077Z,0.00
2023-07-12T02:20:18.474Z,0.00
2023-07-12T02:25:21.550Z,0.00
2023-07-12T02:30:20.606Z,0.00
2023-07-12T02:35:23.636Z,0.00
2023-07-12T02:40:22.685Z,0.00
2023-07-12T02:45:23.710Z,0.00
2023-07-12T02:50:27.783Z,0.00
2023-07-12T02:55:25.799Z,0.00
2023-07-12T03:00:24.836Z,0.00
2023-07-12T03:05:25.921Z,4.00
2023-07-12T03:10:26.931Z,8.00
2023-07-12T03:15:28.971Z,8.00
2023-07-12T03:20:28.058Z,20.00
2023-07-12T03:25:35.224Z,40.00
2023-07-12T03:30:29.336Z,76.00
2023-07-12T03:35:30.360Z,108.00
2023-07-12T03:40:31.478Z,136.00
2023-07-12T03:45:32.543Z,148.00
2023-07-12T03:50:34.560Z,172.00
2023-07-12T03:55:33.622Z,216.00
2023-07-12T04:00:35.763Z,356.00
2023-07-12T04:05:35.763Z,552.00
2023-07-12T04:10:35.819Z,368.00
2023-07-12T04:15:34.885Z,288.00
2023-07-12T04:20:36.978Z,268.00
2023-07-12T04:25:36.970Z,192.00
2023-07-12T04:30:38.070Z,136.00
2023-07-12T04:35:37.104Z,104.00
2023-07-12T04:40:38.206Z,80.00
2023-07-12T04:45:39.253Z,68.00
2023-07-12T04:50:40.356Z,60.00
2023-07-12T04:55:42.441Z,92.00
2023-07-12T05:00:41.584Z,60.00
2023-07-12T05:05:41.611Z,64.00
2023-07-12T05:10:42.685Z,68.00
2023-07-12T05:15:43.737Z,104.00
2023-07-12T05:20:44.756Z,180.00
2023-07-12T05:25:47.828Z,272.00
2023-07-12T05:30:47.913Z,408.00
2023-07-12T05:35:47.931Z,620.00
2023-07-12T05:40:46.986Z,836.00
2023-07-12T05:45:50.058Z,692.00
2023-07-12T05:50:49.102Z,508.00
2023-07-12T05:55:50.127Z,444.00
2023-07-12T06:00:51.193Z,460.00
2023-07-12T06:05:53.236Z,564.00
2023-07-12T06:10:52.275Z,688.00
2023-07-12T06:15:52.379Z,940.00
2023-07-12T06:20:54.451Z,1412.00
2023-07-12T06:25:54.485Z,1912.00
2023-07-12T06:30:54.672Z,2236.00
2023-07-12T06:35:53.767Z,2380.00
2023-07-12T06:40:54.827Z,2888.00
2023-07-12T06:45:56.959Z,2896.00
2023-07-12T06:50:55.999Z,3412.00
2023-07-12T06:55:57.047Z,3128.00
2023-07-12T07:00:58.129Z,3248.00
2023-07-12T07:06:00.267Z,2940.00
2023-07-12T07:11:01.401Z,4448.00
2023-07-12T07:16:00.567Z,5424.00
2023-07-12T07:21:02.599Z,5344.00
2023-07-12T07:26:01.648Z,6052.00
2023-07-12T07:31:03.879Z,6820.00
2023-07-12T07:36:03.918Z,7308.00
2023-07-12T07:41:02.959Z,7660.00
2023-07-12T07:46:05.037Z,8068.00
2023-07-12T07:51:07.020Z,8328.00
2023-07-12T07:56:04.118Z,8740.00
2023-07-12T08:01:05.173Z,9056.00
2023-07-12T08:06:06.426Z,8480.00
2023-07-12T08:11:08.268Z,8356.00
2023-07-12T08:16:07.534Z,8552.00
2023-07-12T08:21:09.008Z,8852.00
2023-07-12T08:26:09.314Z,9556.00
2023-07-12T08:31:09.520Z,9648.00
2023-07-12T08:36:08.648Z,9852.00
2023-07-12T08:41:10.844Z,9784.00
2023-07-12T08:46:11.948Z,8848.00
2023-07-12T08:51:11.117Z,8332.00
2023-07-12T08:56:13.118Z,6568.00
2023-07-12T09:01:12.525Z,7484.00
2023-07-12T09:06:12.865Z,7116.00
2023-07-12T09:11:11.895Z,6764.00
2023-07-12T09:16:13.969Z,6668.00
2023-07-12T09:21:13.994Z,6944.00
2023-07-12T09:26:13.114Z,7192.00
2023-07-12T09:31:14.223Z,7224.00
2023-07-12T09:36:16.255Z,6588.00
2023-07-12T09:41:15.321Z,6384.00
2023-07-12T09:46:16.425Z,6508.00
2023-07-12T09:51:18.617Z,6764.00
2023-07-12T09:56:17.693Z,5404.00
2023-07-12T10:01:18.708Z,4740.00
2023-07-12T10:06:20.876Z,4284.00
2023-07-12T10:11:21.882Z,3872.00
2023-07-12T10:16:20.975Z,1756.00
2023-07-12T10:21:23.041Z,1384.00
2023-07-12T10:26:22.095Z,3992.00
2023-07-12T10:31:23.264Z,8844.00
2023-07-12T10:36:25.342Z,9496.00
2023-07-12T10:41:24.455Z,7304.00
2023-07-12T10:46:25.535Z,3552.00
2023-07-12T10:51:26.645Z,2144.00
2023-07-12T10:56:28.704Z,1948.00
2023-07-12T11:01:27.832Z,2692.00
2023-07-12T11:06:27.970Z,3592.00
2023-07-12T11:11:30.073Z,6912.00
2023-07-12T11:16:30.217Z,8152.00
2023-07-12T11:21:30.268Z,5640.00
2023-07-12T11:26:29.311Z,3144.00
2023-07-12T11:31:46.572Z,1700.00
2023-07-12T11:36:31.591Z,1684.00
2023-07-12T11:41:32.623Z,1836.00
2023-07-12T11:46:34.854Z,1532.00
2023-07-12T11:51:34.888Z,1748.00
2023-07-12T11:56:34.961Z,1444.00
2023-07-12T12:01:34.070Z,1052.00
2023-07-12T12:06:35.058Z,1020.00
2023-07-12T12:11:36.176Z,1208.00
2023-07-12T12:16:37.206Z,2192.00
2023-07-12T12:21:38.408Z,2592.00
2023-07-12T12:26:40.659Z,2208.00
2023-07-12T12:31:40.700Z,2344.00
2023-07-12T12:36:39.804Z,2176.00
2023-07-12T12:41:40.936Z,2384.00
2023-07-12T12:58:06.755Z,1724.00
2023-07-12T13:04:17.257Z,1600.00
2023-07-12T13:06:44.486Z,2840.00
2023-07-12T13:12:49.792Z,2976.00
2023-07-12T13:21:46.868Z,6272.00
2023-07-12T13:26:47.991Z,5744.00
2023-07-12T13:31:47.134Z,4432.00
2023-07-12T13:36:48.188Z,5140.00
2023-07-12T13:46:50.327Z,8184.00
2023-07-12T13:51:49.344Z,7208.00
2023-07-12T13:56:52.736Z,7496.00
2023-07-12T14:11:50.992Z,8820.00
2023-07-12T14:16:50.026Z,9764.00
2023-07-12T14:21:51.258Z,9872.00
2023-07-12T14:26:54.313Z,9176.00
2023-07-12T14:31:53.393Z,8804.00
2023-07-12T14:36:54.433Z,8272.00
2023-07-12T14:41:56.648Z,8212.00
2023-07-12T14:46:55.764Z,7336.00
2023-07-12T14:52:09.495Z,6104.00
2023-07-12T14:57:12.522Z,5496.00
2023-07-12T15:02:00.119Z,4380.00
2023-07-12T15:06:59.250Z,3608.00
2023-07-12T15:12:02.570Z,2660.00
2023-07-12T15:17:00.200Z,1308.00
2023-07-12T15:22:01.465Z,2724.00
2023-07-12T15:27:03.603Z,2064.00
2023-07-12T15:32:02.691Z,840.00
2023-07-12T15:37:04.925Z,380.00
2023-07-12T15:42:04.125Z,300.00
2023-07-12T15:47:05.253Z,452.00
2023-07-12T15:52:08.352Z,596.00
2023-07-12T15:57:09.503Z,740.00
2023-07-12T16:02:08.852Z,800.00
2023-07-12T16:07:11.305Z,816.00
2023-07-12T16:12:10.831Z,812.00
2023-07-12T16:17:11.441Z,892.00
2023-07-12T16:22:10.947Z,1120.00
2023-07-12T16:27:11.433Z,760.00
2023-07-12T16:32:12.361Z,524.00
2023-07-12T16:37:11.782Z,272.00
2023-07-12T16:42:11.423Z,284.00
2023-07-12T16:47:11.005Z,276.00
2023-07-12T16:52:12.612Z,268.00
2023-07-12T16:57:16.050Z,184.00
2023-07-12T17:02:12.722Z,192.00
2023-07-12T17:07:13.336Z,284.00
2023-07-12T17:12:12.760Z,456.00
2023-07-12T17:17:12.199Z,732.00
2023-07-12T17:22:13.732Z,792.00
2023-07-12T17:27:14.851Z,800.00
2023-07-12T17:32:16.345Z,596.00
2023-07-12T17:37:13.892Z,536.00
2023-07-12T17:42:14.394Z,384.00
2023-07-12T17:47:13.893Z,100.00
2023-07-12T17:52:14.364Z,48.00
2023-07-12T17:57:14.963Z,96.00
2023-07-12T18:02:14.593Z,168.00
2023-07-12T18:07:14.197Z,100.00
2023-07-12T18:12:13.740Z,68.00
2023-07-12T18:17:13.423Z,172.00
2023-07-12T18:22:13.041Z,88.00
2023-07-12T18:27:13.607Z,44.00
2023-07-12T18:32:13.190Z,84.00
2023-07-12T18:37:14.779Z,84.00
2023-07-12T18:42:13.371Z,84.00
2023-07-12T18:47:12.957Z,76.00
2023-07-12T18:52:12.558Z,76.00
2023-07-12T18:57:12.117Z,68.00
2023-07-12T19:02:11.672Z,36.00
2023-07-12T19:07:11.290Z,24.00
2023-07-12T19:12:11.957Z,12.00
2023-07-12T19:17:12.628Z,8.00
2023-07-12T19:22:12.291Z,4.00
2023-07-12T19:27:14.901Z,4.00
2023-07-12T19:32:13.813Z,4.00
2023-07-12T19:37:13.372Z,4.00
2023-07-12T19:42:14.090Z,4.00
2023-07-12T19:47:14.774Z,0.00
2023-07-12T19:52:15.409Z,0.00
2023-07-12T19:57:14.978Z,0.00
2023-07-12T20:02:16.010Z,0.00
2023-07-12T20:07:16.567Z,0.00
2023-07-12T20:12:16.146Z,0.00
2023-07-12T20:17:15.930Z,0.00
2023-07-12T20:22:16.546Z,0.00
2023-07-12T20:27:16.075Z,0.00
2023-07-12T20:32:17.043Z,0.00
2023-07-12T20:37:16.731Z,0.00
2023-07-12T20:42:16.764Z,0.00
2023-07-12T20:47:17.271Z,0.00
2023-07-12T20:52:16.743Z,0.00
2023-07-12T20:57:18.259Z,0.00
2023-07-12T21:02:17.499Z,0.00
2023-07-12T21:07:19.589Z,0.00
2023-07-12T21:12:18.665Z,0.00
2023-07-12T21:17:19.813Z,0.00
2023-07-12T21:22:20.946Z,0.00
2023-07-12T21:27:21.054Z,0.00
2023-07-12T21:32:22.300Z,0.00
2023-07-12T21:37:24.359Z,0.00
2023-07-12T21:42:23.454Z,0.00
2023-07-12T21:47:25.544Z,0.00
2023-07-12T21:52:24.689Z,0.00
2023-07-12T21:57:25.804Z,0.00
2023-07-12T22:02:27.980Z,0.00
2023-07-12T22:07:27.055Z,0.00
2023-07-12T22:12:31.339Z,0.00
2023-07-12T22:17:28.577Z,0.00
2023-07-12T22:22:30.375Z,0.00
2023-07-12T22:27:29.455Z,0.00
2023-07-12T22:32:30.663Z,0.00
2023-07-12T22:37:31.736Z,0.00
2023-07-12T22:42:32.807Z,0.00
2023-07-12T22:47:33.916Z,0.00
2023-07-12T22:52:35.002Z,0.00
2023-07-12T22:57:36.066Z,0.00
2023-07-12T23:02:38.520Z,0.00
2023-07-12T23:07:37.697Z,0.00
2023-07-12T23:12:38.864Z,0.00
2023-07-12T23:17:40.929Z,0.00
2023-07-12T23:22:40.167Z,0.00
2023-07-12T23:27:41.152Z,0.00
2023-07-12T23:32:43.205Z,0.00
2023-07-12T23:37:42.237Z,0.00
2023-07-12T23:42:43.267Z,0.00
2023-07-12T23:47:45.320Z,0.00
2023-07-12T23:52:45.387Z,0.00
2023-07-12T23:57:44.482Z,0.00
